sensor_id;sensor_type;location;lat;lon;timestamp;temperature;humidity
13572;DHT22;6857;53.484;10.216;2023-04-25T00:19:42;8.00;99.90
13572;DHT22;6857;53.484;10.216;2023-04-25T00:22:10;8.20;99.90
13572;DHT22;6857;53.484;10.216;2023-04-25T00:24:36;8.20;99.90
13572;DHT22;6857;53.484;10.216;2023-04-25T00:27:01;8.10;99.90
13572;DHT22;6857;53.484;10.216;2023-04-25T01:23:39;7.70;99.90
13572;DHT22;6857;53.484;10.216;2023-04-25T01:26:06;8.00;99.90
13572;DHT22;6857;53.484;10.216;2023-04-25T01:28:34;7.90;99.90
13572;DHT22;6857;53.484;10.216;2023-04-25T01:31:00;7.80;99.90
13572;DHT22;6857;53.484;10.216;2023-04-25T01:33:26;7.70;99.90
13572;DHT22;6857;53.484;10.216;2023-04-25T01:35:51;7.70;99.90
13572;DHT22;6857;53.484;10.216;2023-04-25T01:38:17;7.80;99.90
13572;DHT22;6857;53.484;10.216;2023-04-25T01:40:45;7.80;99.90
13572;DHT22;6857;53.484;10.216;2023-04-25T01:43:11;7.80;99.90
13572;DHT22;6857;53.484;10.216;2023-04-25T01:45:43;7.80;99.90
13572;DHT22;6857;53.484;10.216;2023-04-25T01:48:10;7.80;99.90
13572;DHT22;6857;53.484;10.216;2023-04-25T01:50:37;7.80;99.90
13572;DHT22;6857;53.484;10.216;2023-04-25T01:53:04;7.80;99.90
13572;DHT22;6857;53.484;10.216;2023-04-25T01:55:29;7.70;99.90
13572;DHT22;6857;53.484;10.216;2023-04-25T01:57:55;7.60;99.90
13572;DHT22;6857;53.484;10.216;2023-04-25T02:00:21;7.60;99.90
13572;DHT22;6857;53.484;10.216;2023-04-25T02:02:47;7.60;99.90
13572;DHT22;6857;53.484;10.216;2023-04-25T02:07:40;7.40;99.90
13572;DHT22;6857;53.484;10.216;2023-04-25T02:10:06;7.50;99.90
13572;DHT22;6857;53.484;10.216;2023-04-25T02:12:32;7.50;99.90
13572;DHT22;6857;53.484;10.216;2023-04-25T02:14:57;7.50;99.90
13572;DHT22;6857;53.484;10.216;2023-04-25T02:17:23;7.50;99.90
13572;DHT22;6857;53.484;10.216;2023-04-25T02:19:48;7.50;99.90
13572;DHT22;6857;53.484;10.216;2023-04-25T02:22:14;7.50;99.90
13572;DHT22;6857;53.484;10.216;2023-04-25T02:24:40;7.50;99.90
13572;DHT22;6857;53.484;10.216;2023-04-25T02:27:05;7.40;99.90
13572;DHT22;6857;53.484;10.216;2023-04-25T02:29:31;7.50;99.90
13572;DHT22;6857;53.484;10.216;2023-04-25T02:31:57;7.50;99.90
13572;DHT22;6857;53.484;10.216;2023-04-25T02:34:22;7.40;99.90
13572;DHT22;6857;53.484;10.216;2023-04-25T02:36:48;7.40;99.90
13572;DHT22;6857;53.484;10.216;2023-04-25T02:39:16;7.40;99.90
13572;DHT22;6857;53.484;10.216;2023-04-25T02:41:42;7.40;99.90
13572;DHT22;6857;53.484;10.216;2023-04-25T02:44:07;7.40;99.90
13572;DHT22;6857;53.484;10.216;2023-04-25T02:46:33;7.40;99.90
13572;DHT22;6857;53.484;10.216;2023-04-25T02:48:58;7.30;99.90
13572;DHT22;6857;53.484;10.216;2023-04-25T02:51:24;7.30;99.90
13572;DHT22;6857;53.484;10.216;2023-04-25T02:53:50;7.30;99.90
13572;DHT22;6857;53.484;10.216;2023-04-25T02:56:15;7.20;99.90
13572;DHT22;6857;53.484;10.216;2023-04-25T02:58:41;7.20;99.90
13572;DHT22;6857;53.484;10.216;2023-04-25T03:01:06;7.20;99.90
13572;DHT22;6857;53.484;10.216;2023-04-25T03:03:32;7.20;99.90
13572;DHT22;6857;53.484;10.216;2023-04-25T03:05:57;7.20;99.90
13572;DHT22;6857;53.484;10.216;2023-04-25T03:08:23;7.30;99.90
13572;DHT22;6857;53.484;10.216;2023-04-25T03:10:50;7.30;99.90
13572;DHT22;6857;53.484;10.216;2023-04-25T03:45:07;6.90;99.90
13572;DHT22;6857;53.484;10.216;2023-04-25T03:47:33;7.10;99.90
13572;DHT22;6857;53.484;10.216;2023-04-25T03:49:58;6.90;99.90
13572;DHT22;6857;53.484;10.216;2023-04-25T03:52:25;6.90;99.90
13572;DHT22;6857;53.484;10.216;2023-04-25T03:57:17;6.80;99.90
13572;DHT22;6857;53.484;10.216;2023-04-25T03:59:42;6.90;99.90
13572;DHT22;6857;53.484;10.216;2023-04-25T04:02:08;6.90;99.90
13572;DHT22;6857;53.484;10.216;2023-04-25T04:04:33;6.90;99.90
13572;DHT22;6857;53.484;10.216;2023-04-25T04:06:59;6.80;99.90
13572;DHT22;6857;53.484;10.216;2023-04-25T04:09:25;6.90;99.90
13572;DHT22;6857;53.484;10.216;2023-04-25T04:11:51;6.80;99.90
13572;DHT22;6857;53.484;10.216;2023-04-25T04:14:17;6.80;99.90
13572;DHT22;6857;53.484;10.216;2023-04-25T04:16:42;6.80;99.90
13572;DHT22;6857;53.484;10.216;2023-04-25T04:19:08;6.80;99.90
13572;DHT22;6857;53.484;10.216;2023-04-25T04:21:33;6.70;99.90
13572;DHT22;6857;53.484;10.216;2023-04-25T04:23:59;6.70;99.90
13572;DHT22;6857;53.484;10.216;2023-04-25T04:26:25;6.70;99.90
13572;DHT22;6857;53.484;10.216;2023-04-25T04:28:51;6.70;99.90
13572;DHT22;6857;53.484;10.216;2023-04-25T04:31:17;6.60;99.90
13572;DHT22;6857;53.484;10.216;2023-04-25T04:33:45;6.70;99.90
13572;DHT22;6857;53.484;10.216;2023-04-25T04:36:11;6.60;99.90
13572;DHT22;6857;53.484;10.216;2023-04-25T04:38:36;6.60;99.90
13572;DHT22;6857;53.484;10.216;2023-04-25T04:41:02;6.60;99.90
13572;DHT22;6857;53.484;10.216;2023-04-25T04:43:28;6.60;99.90
13572;DHT22;6857;53.484;10.216;2023-04-25T04:45:55;6.50;99.90
13572;DHT22;6857;53.484;10.216;2023-04-25T04:48:22;6.50;99.90
13572;DHT22;6857;53.484;10.216;2023-04-25T04:50:47;6.60;99.90
13572;DHT22;6857;53.484;10.216;2023-04-25T04:53:13;6.50;99.90
13572;DHT22;6857;53.484;10.216;2023-04-25T04:55:39;6.60;99.90
13572;DHT22;6857;53.484;10.216;2023-04-25T04:58:06;6.70;99.90
13572;DHT22;6857;53.484;10.216;2023-04-25T05:00:32;6.60;99.90
13572;DHT22;6857;53.484;10.216;2023-04-25T05:02:58;6.60;99.90
13572;DHT22;6857;53.484;10.216;2023-04-25T05:05:24;6.70;99.90
13572;DHT22;6857;53.484;10.216;2023-04-25T05:07:50;6.80;99.90
13572;DHT22;6857;53.484;10.216;2023-04-25T05:10:17;6.80;99.90
13572;DHT22;6857;53.484;10.216;2023-04-25T05:12:42;6.90;99.90
13572;DHT22;6857;53.484;10.216;2023-04-25T05:15:08;7.00;99.90
13572;DHT22;6857;53.484;10.216;2023-04-25T05:17:34;7.00;99.90
13572;DHT22;6857;53.484;10.216;2023-04-25T05:20:00;6.90;99.90
13572;DHT22;6857;53.484;10.216;2023-04-25T05:22:25;7.10;99.90
13572;DHT22;6857;53.484;10.216;2023-04-25T05:24:51;7.20;99.90
13572;DHT22;6857;53.484;10.216;2023-04-25T05:27:18;7.20;99.90
13572;DHT22;6857;53.484;10.216;2023-04-25T05:29:44;7.10;99.90
13572;DHT22;6857;53.484;10.216;2023-04-25T05:32:09;7.10;99.90
13572;DHT22;6857;53.484;10.216;2023-04-25T05:34:35;7.10;99.90
13572;DHT22;6857;53.484;10.216;2023-04-25T05:37:01;7.10;99.90
13572;DHT22;6857;53.484;10.216;2023-04-25T05:39:26;7.00;99.90
13572;DHT22;6857;53.484;10.216;2023-04-25T05:41:52;6.90;99.90
13572;DHT22;6857;53.484;10.216;2023-04-25T05:44:18;6.40;99.90
13572;DHT22;6857;53.484;10.216;2023-04-25T05:46:43;6.10;99.90
13572;DHT22;6857;53.484;10.216;2023-04-25T05:49:09;5.90;99.90
13572;DHT22;6857;53.484;10.216;2023-04-25T05:51:35;5.90;99.90
13572;DHT22;6857;53.484;10.216;2023-04-25T05:54:00;6.10;99.90
13572;DHT22;6857;53.484;10.216;2023-04-25T05:56:26;6.10;99.90
13572;DHT22;6857;53.484;10.216;2023-04-25T05:58:51;6.20;99.90
13572;DHT22;6857;53.484;10.216;2023-04-25T06:01:17;6.30;99.90
13572;DHT22;6857;53.484;10.216;2023-04-25T06:03:42;6.40;99.90
13572;DHT22;6857;53.484;10.216;2023-04-25T06:06:09;6.50;99.90
13572;DHT22;6857;53.484;10.216;2023-04-25T06:08:35;6.70;99.90
13572;DHT22;6857;53.484;10.216;2023-04-25T06:11:00;6.80;99.90
13572;DHT22;6857;53.484;10.216;2023-04-25T06:13:26;6.90;99.90
13572;DHT22;6857;53.484;10.216;2023-04-25T06:15:52;6.90;99.90
13572;DHT22;6857;53.484;10.216;2023-04-25T06:18:17;7.00;99.90
13572;DHT22;6857;53.484;10.216;2023-04-25T06:20:43;7.00;99.90
13572;DHT22;6857;53.484;10.216;2023-04-25T06:23:08;7.10;99.90
13572;DHT22;6857;53.484;10.216;2023-04-25T06:25:34;7.10;99.90
13572;DHT22;6857;53.484;10.216;2023-04-25T06:27:59;7.30;99.90
13572;DHT22;6857;53.484;10.216;2023-04-25T06:30:25;7.20;99.90
13572;DHT22;6857;53.484;10.216;2023-04-25T06:32:52;7.30;99.90
13572;DHT22;6857;53.484;10.216;2023-04-25T06:35:18;7.30;99.90
13572;DHT22;6857;53.484;10.216;2023-04-25T06:37:44;7.20;99.90
13572;DHT22;6857;53.484;10.216;2023-04-25T06:40:09;7.30;99.90
13572;DHT22;6857;53.484;10.216;2023-04-25T06:42:35;7.40;99.90
13572;DHT22;6857;53.484;10.216;2023-04-25T06:45:01;7.40;99.90
13572;DHT22;6857;53.484;10.216;2023-04-25T06:47:26;7.40;99.90
13572;DHT22;6857;53.484;10.216;2023-04-25T06:49:52;7.40;99.90
13572;DHT22;6857;53.484;10.216;2023-04-25T06:52:17;7.50;99.90
13572;DHT22;6857;53.484;10.216;2023-04-25T06:54:44;7.50;99.90
13572;DHT22;6857;53.484;10.216;2023-04-25T06:57:09;7.50;99.90
13572;DHT22;6857;53.484;10.216;2023-04-25T06:59:35;7.50;99.90
13572;DHT22;6857;53.484;10.216;2023-04-25T07:02:00;7.40;99.90
13572;DHT22;6857;53.484;10.216;2023-04-25T07:04:26;7.50;99.90
13572;DHT22;6857;53.484;10.216;2023-04-25T07:06:51;7.60;99.90
13572;DHT22;6857;53.484;10.216;2023-04-25T07:09:17;7.60;99.90
13572;DHT22;6857;53.484;10.216;2023-04-25T07:11:43;7.80;99.90
13572;DHT22;6857;53.484;10.216;2023-04-25T07:14:08;7.80;99.90
13572;DHT22;6857;53.484;10.216;2023-04-25T07:16:34;7.90;99.90
13572;DHT22;6857;53.484;10.216;2023-04-25T07:18:59;7.70;99.90
13572;DHT22;6857;53.484;10.216;2023-04-25T07:21:25;7.80;99.90
13572;DHT22;6857;53.484;10.216;2023-04-25T07:23:51;7.70;99.90
13572;DHT22;6857;53.484;10.216;2023-04-25T07:26:17;7.60;99.90
13572;DHT22;6857;53.484;10.216;2023-04-25T07:28:42;7.70;99.90
13572;DHT22;6857;53.484;10.216;2023-04-25T07:31:08;7.80;99.90
13572;DHT22;6857;53.484;10.216;2023-04-25T07:33:34;7.90;99.90
13572;DHT22;6857;53.484;10.216;2023-04-25T07:36:00;8.40;99.90
13572;DHT22;6857;53.484;10.216;2023-04-25T07:38:25;7.90;99.90
13572;DHT22;6857;53.484;10.216;2023-04-25T07:40:51;8.00;99.90
13572;DHT22;6857;53.484;10.216;2023-04-25T07:43:17;7.90;99.90
13572;DHT22;6857;53.484;10.216;2023-04-25T07:45:43;8.10;99.90
13572;DHT22;6857;53.484;10.216;2023-04-25T07:48:09;8.00;99.90
13572;DHT22;6857;53.484;10.216;2023-04-25T07:50:35;7.90;99.90
13572;DHT22;6857;53.484;10.216;2023-04-25T07:53:00;7.90;99.90
13572;DHT22;6857;53.484;10.216;2023-04-25T07:55:26;8.00;99.90
13572;DHT22;6857;53.484;10.216;2023-04-25T07:57:52;8.00;99.90
13572;DHT22;6857;53.484;10.216;2023-04-25T08:00:18;8.00;99.90
13572;DHT22;6857;53.484;10.216;2023-04-25T08:02:43;8.00;99.90
13572;DHT22;6857;53.484;10.216;2023-04-25T08:05:09;8.00;99.90
13572;DHT22;6857;53.484;10.216;2023-04-25T08:07:37;8.10;99.90
13572;DHT22;6857;53.484;10.216;2023-04-25T08:10:05;8.10;99.90
13572;DHT22;6857;53.484;10.216;2023-04-25T08:12:31;8.20;99.90
13572;DHT22;6857;53.484;10.216;2023-04-25T08:14:56;8.30;99.90
13572;DHT22;6857;53.484;10.216;2023-04-25T08:17:22;8.40;99.90
13572;DHT22;6857;53.484;10.216;2023-04-25T08:19:47;8.50;99.90
13572;DHT22;6857;53.484;10.216;2023-04-25T08:22:13;8.60;99.90
13572;DHT22;6857;53.484;10.216;2023-04-25T08:24:38;8.70;99.90
13572;DHT22;6857;53.484;10.216;2023-04-25T08:27:04;8.80;99.90
13572;DHT22;6857;53.484;10.216;2023-04-25T08:29:29;9.00;99.90
13572;DHT22;6857;53.484;10.216;2023-04-25T08:31:55;9.00;99.90
13572;DHT22;6857;53.484;10.216;2023-04-25T08:34:20;8.80;99.90
13572;DHT22;6857;53.484;10.216;2023-04-25T08:36:46;8.70;99.90
13572;DHT22;6857;53.484;10.216;2023-04-25T08:39:12;8.80;99.90
13572;DHT22;6857;53.484;10.216;2023-04-25T08:41:38;8.80;99.90
13572;DHT22;6857;53.484;10.216;2023-04-25T08:44:09;8.70;99.90
13572;DHT22;6857;53.484;10.216;2023-04-25T08:46:38;8.60;99.90
13572;DHT22;6857;53.484;10.216;2023-04-25T08:49:04;8.60;99.90
13572;DHT22;6857;53.484;10.216;2023-04-25T08:51:32;8.60;99.90
13572;DHT22;6857;53.484;10.216;2023-04-25T08:54:11;8.70;99.90
13572;DHT22;6857;53.484;10.216;2023-04-25T08:56:56;8.80;99.90
13572;DHT22;6857;53.484;10.216;2023-04-25T08:59:23;8.70;99.90
13572;DHT22;6857;53.484;10.216;2023-04-25T09:01:49;8.70;99.90
13572;DHT22;6857;53.484;10.216;2023-04-25T09:04:15;8.80;99.90
13572;DHT22;6857;53.484;10.216;2023-04-25T09:06:41;8.90;99.90
13572;DHT22;6857;53.484;10.216;2023-04-25T09:09:08;9.00;99.90
13572;DHT22;6857;53.484;10.216;2023-04-25T09:11:35;9.00;99.90
13572;DHT22;6857;53.484;10.216;2023-04-25T09:14:30;9.00;99.90
13572;DHT22;6857;53.484;10.216;2023-04-25T09:21:53;9.00;99.90
13572;DHT22;6857;53.484;10.216;2023-04-25T09:26:59;8.70;99.90
13572;DHT22;6857;53.484;10.216;2023-04-25T09:29:32;8.80;99.90
13572;DHT22;6857;53.484;10.216;2023-04-25T09:32:21;8.80;99.90
13572;DHT22;6857;53.484;10.216;2023-04-25T09:34:51;8.70;99.90
13572;DHT22;6857;53.484;10.216;2023-04-25T09:37:22;8.40;99.90
13572;DHT22;6857;53.484;10.216;2023-04-25T09:39:58;8.30;99.90
13572;DHT22;6857;53.484;10.216;2023-04-25T09:42:27;8.10;99.90
13572;DHT22;6857;53.484;10.216;2023-04-25T09:44:55;7.90;99.90
13572;DHT22;6857;53.484;10.216;2023-04-25T09:47:23;8.00;99.90
13572;DHT22;6857;53.484;10.216;2023-04-25T09:49:50;8.10;99.90
13572;DHT22;6857;53.484;10.216;2023-04-25T09:52:18;8.30;99.90
13572;DHT22;6857;53.484;10.216;2023-04-25T09:54:45;8.40;99.90
13572;DHT22;6857;53.484;10.216;2023-04-25T09:59:45;8.60;99.90
13572;DHT22;6857;53.484;10.216;2023-04-25T10:02:12;8.90;99.90
13572;DHT22;6857;53.484;10.216;2023-04-25T10:04:38;8.80;99.90
13572;DHT22;6857;53.484;10.216;2023-04-25T10:07:08;7.90;99.90
13572;DHT22;6857;53.484;10.216;2023-04-25T10:09:37;7.40;99.90
13572;DHT22;6857;53.484;10.216;2023-04-25T10:12:05;7.30;99.90
13572;DHT22;6857;53.484;10.216;2023-04-25T10:14:31;7.20;99.90
13572;DHT22;6857;53.484;10.216;2023-04-25T10:16:58;7.50;99.90
13572;DHT22;6857;53.484;10.216;2023-04-25T10:19:24;7.70;99.90
13572;DHT22;6857;53.484;10.216;2023-04-25T10:22:13;8.00;99.90
13572;DHT22;6857;53.484;10.216;2023-04-25T10:24:40;8.40;99.90
13572;DHT22;6857;53.484;10.216;2023-04-25T10:27:07;8.40;99.90
13572;DHT22;6857;53.484;10.216;2023-04-25T10:29:33;8.50;99.90
13572;DHT22;6857;53.484;10.216;2023-04-25T10:31:58;8.50;99.90
13572;DHT22;6857;53.484;10.216;2023-04-25T10:34:41;8.60;99.90
13572;DHT22;6857;53.484;10.216;2023-04-25T10:37:10;8.70;99.90
13572;DHT22;6857;53.484;10.216;2023-04-25T10:39:41;8.70;99.90
13572;DHT22;6857;53.484;10.216;2023-04-25T10:42:07;8.90;99.90
13572;DHT22;6857;53.484;10.216;2023-04-25T10:44:33;9.00;99.90
13572;DHT22;6857;53.484;10.216;2023-04-25T10:47:01;9.00;99.90
13572;DHT22;6857;53.484;10.216;2023-04-25T10:49:37;9.10;99.90
13572;DHT22;6857;53.484;10.216;2023-04-25T10:52:25;9.30;99.90
13572;DHT22;6857;53.484;10.216;2023-04-25T10:54:55;9.40;99.90
13572;DHT22;6857;53.484;10.216;2023-04-25T10:57:56;9.50;99.90
13572;DHT22;6857;53.484;10.216;2023-04-25T11:00:23;9.70;99.90
13572;DHT22;6857;53.484;10.216;2023-04-25T11:02:53;9.70;99.90
13572;DHT22;6857;53.484;10.216;2023-04-25T11:05:35;9.60;99.90
13572;DHT22;6857;53.484;10.216;2023-04-25T11:08:02;9.70;99.90
13572;DHT22;6857;53.484;10.216;2023-04-25T11:10:32;9.80;99.90
13572;DHT22;6857;53.484;10.216;2023-04-25T11:13:00;9.80;99.90
13572;DHT22;6857;53.484;10.216;2023-04-25T11:15:26;10.00;99.90
13572;DHT22;6857;53.484;10.216;2023-04-25T11:17:53;10.30;99.90
13572;DHT22;6857;53.484;10.216;2023-04-25T11:20:19;10.30;99.90
13572;DHT22;6857;53.484;10.216;2023-04-25T11:22:46;10.20;99.90
13572;DHT22;6857;53.484;10.216;2023-04-25T11:25:13;9.90;99.90
13572;DHT22;6857;53.484;10.216;2023-04-25T11:27:50;9.80;99.90
13572;DHT22;6857;53.484;10.216;2023-04-25T11:30:17;9.90;99.90
13572;DHT22;6857;53.484;10.216;2023-04-25T11:32:43;9.90;99.90
13572;DHT22;6857;53.484;10.216;2023-04-25T11:35:09;9.80;99.90
13572;DHT22;6857;53.484;10.216;2023-04-25T11:37:35;9.50;99.90
13572;DHT22;6857;53.484;10.216;2023-04-25T11:40:02;9.50;99.90
13572;DHT22;6857;53.484;10.216;2023-04-25T11:42:27;9.60;99.90
13572;DHT22;6857;53.484;10.216;2023-04-25T11:44:53;9.80;99.90
13572;DHT22;6857;53.484;10.216;2023-04-25T11:47:18;9.80;99.90
13572;DHT22;6857;53.484;10.216;2023-04-25T11:49:44;9.80;99.90
13572;DHT22;6857;53.484;10.216;2023-04-25T11:52:09;10.20;99.90
13572;DHT22;6857;53.484;10.216;2023-04-25T11:54:36;10.50;99.90
13572;DHT22;6857;53.484;10.216;2023-04-25T11:57:03;10.30;99.90
13572;DHT22;6857;53.484;10.216;2023-04-25T11:59:29;9.20;99.90
13572;DHT22;6857;53.484;10.216;2023-04-25T12:01:54;7.40;99.90
13572;DHT22;6857;53.484;10.216;2023-04-25T12:04:24;7.30;99.90
13572;DHT22;6857;53.484;10.216;2023-04-25T12:11:56;7.20;99.90
13572;DHT22;6857;53.484;10.216;2023-04-25T12:16:55;7.90;99.90
13572;DHT22;6857;53.484;10.216;2023-04-25T12:19:22;8.20;99.90
13572;DHT22;6857;53.484;10.216;2023-04-25T12:21:48;8.50;99.90
13572;DHT22;6857;53.484;10.216;2023-04-25T12:24:23;8.90;99.90
13572;DHT22;6857;53.484;10.216;2023-04-25T12:26:58;9.30;99.90
13572;DHT22;6857;53.484;10.216;2023-04-25T12:31:52;10.70;99.90
13572;DHT22;6857;53.484;10.216;2023-04-25T12:34:19;11.00;99.90
13572;DHT22;6857;53.484;10.216;2023-04-25T12:36:45;11.40;99.90
13572;DHT22;6857;53.484;10.216;2023-04-25T12:39:17;11.50;99.90
13572;DHT22;6857;53.484;10.216;2023-04-25T12:41:44;11.70;99.90
13572;DHT22;6857;53.484;10.216;2023-04-25T12:44:10;11.80;99.90
13572;DHT22;6857;53.484;10.216;2023-04-25T12:46:36;11.60;99.90
13572;DHT22;6857;53.484;10.216;2023-04-25T12:49:01;11.10;99.90
13572;DHT22;6857;53.484;10.216;2023-04-25T12:51:28;10.90;99.90
13572;DHT22;6857;53.484;10.216;2023-04-25T12:53:54;10.50;99.90
13572;DHT22;6857;53.484;10.216;2023-04-25T12:56:20;10.40;99.90
13572;DHT22;6857;53.484;10.216;2023-04-25T12:58:45;10.30;99.90
13572;DHT22;6857;53.484;10.216;2023-04-25T13:01:11;10.50;99.90
13572;DHT22;6857;53.484;10.216;2023-04-25T13:03:39;10.80;99.90
13572;DHT22;6857;53.484;10.216;2023-04-25T13:06:06;11.20;99.90
13572;DHT22;6857;53.484;10.216;2023-04-25T13:08:31;11.50;99.90
13572;DHT22;6857;53.484;10.216;2023-04-25T13:10:57;11.90;99.90
13572;DHT22;6857;53.484;10.216;2023-04-25T13:13:23;12.00;99.90
13572;DHT22;6857;53.484;10.216;2023-04-25T13:15:48;11.40;99.90
13572;DHT22;6857;53.484;10.216;2023-04-25T13:18:14;10.50;99.90
13572;DHT22;6857;53.484;10.216;2023-04-25T13:20:40;9.90;99.90
13572;DHT22;6857;53.484;10.216;2023-04-25T13:23:06;9.70;99.90
13572;DHT22;6857;53.484;10.216;2023-04-25T13:25:31;9.50;99.90
13572;DHT22;6857;53.484;10.216;2023-04-25T13:27:57;9.40;99.90
13572;DHT22;6857;53.484;10.216;2023-04-25T13:30:22;9.60;99.90
13572;DHT22;6857;53.484;10.216;2023-04-25T13:35:14;10.10;99.90
13572;DHT22;6857;53.484;10.216;2023-04-25T13:37:40;9.90;99.90
13572;DHT22;6857;53.484;10.216;2023-04-25T13:40:08;9.60;99.90
13572;DHT22;6857;53.484;10.216;2023-04-25T13:42:35;9.00;99.90
13572;DHT22;6857;53.484;10.216;2023-04-25T13:45:02;8.20;99.90
13572;DHT22;6857;53.484;10.216;2023-04-25T13:47:28;8.10;99.90
13572;DHT22;6857;53.484;10.216;2023-04-25T13:49:54;8.10;99.90
13572;DHT22;6857;53.484;10.216;2023-04-25T13:52:20;8.10;99.90
13572;DHT22;6857;53.484;10.216;2023-04-25T13:54:46;8.30;99.90
13572;DHT22;6857;53.484;10.216;2023-04-25T13:57:11;8.90;99.90
13572;DHT22;6857;53.484;10.216;2023-04-25T13:59:37;9.50;99.90
13572;DHT22;6857;53.484;10.216;2023-04-25T14:02:03;10.10;99.90
13572;DHT22;6857;53.484;10.216;2023-04-25T14:04:28;10.70;99.90
13572;DHT22;6857;53.484;10.216;2023-04-25T14:06:55;10.90;99.90
13572;DHT22;6857;53.484;10.216;2023-04-25T14:09:20;10.70;99.90
13572;DHT22;6857;53.484;10.216;2023-04-25T14:11:54;10.00;99.90
13572;DHT22;6857;53.484;10.216;2023-04-25T14:14:20;8.20;99.90
13572;DHT22;6857;53.484;10.216;2023-04-25T14:16:49;7.90;99.90
13572;DHT22;6857;53.484;10.216;2023-04-25T14:21:44;6.60;99.90
13572;DHT22;6857;53.484;10.216;2023-04-25T14:29:05;6.20;99.90
13572;DHT22;6857;53.484;10.216;2023-04-25T14:31:34;6.40;99.90
13572;DHT22;6857;53.484;10.216;2023-04-25T14:34:00;7.00;99.90
13572;DHT22;6857;53.484;10.216;2023-04-25T14:36:27;7.50;99.90
13572;DHT22;6857;53.484;10.216;2023-04-25T14:38:53;8.50;99.90
13572;DHT22;6857;53.484;10.216;2023-04-25T14:43:45;10.00;99.90
13572;DHT22;6857;53.484;10.216;2023-04-25T14:48:37;10.60;99.90
13572;DHT22;6857;53.484;10.216;2023-04-25T14:51:03;10.50;99.90
13572;DHT22;6857;53.484;10.216;2023-04-25T14:53:30;11.00;99.90
13572;DHT22;6857;53.484;10.216;2023-04-25T14:55:55;11.20;99.90
13572;DHT22;6857;53.484;10.216;2023-04-25T14:58:21;10.70;99.90
13572;DHT22;6857;53.484;10.216;2023-04-25T15:05:42;9.30;99.90
13572;DHT22;6857;53.484;10.216;2023-04-25T15:08:08;10.40;99.90
13572;DHT22;6857;53.484;10.216;2023-04-25T15:10:33;10.90;99.90
13572;DHT22;6857;53.484;10.216;2023-04-25T15:12:59;11.30;99.90
13572;DHT22;6857;53.484;10.216;2023-04-25T15:15:25;11.80;99.90
13572;DHT22;6857;53.484;10.216;2023-04-25T15:17:50;12.20;99.90
13572;DHT22;6857;53.484;10.216;2023-04-25T15:20:16;12.50;99.90
13572;DHT22;6857;53.484;10.216;2023-04-25T15:22:43;13.00;99.90
13572;DHT22;6857;53.484;10.216;2023-04-25T15:25:10;12.80;99.90
13572;DHT22;6857;53.484;10.216;2023-04-25T15:27:37;12.10;99.90
13572;DHT22;6857;53.484;10.216;2023-04-25T15:30:07;11.30;99.90
13572;DHT22;6857;53.484;10.216;2023-04-25T15:32:33;10.40;99.90
13572;DHT22;6857;53.484;10.216;2023-04-25T15:34:59;9.70;99.90
13572;DHT22;6857;53.484;10.216;2023-04-25T15:37:25;9.30;99.90
13572;DHT22;6857;53.484;10.216;2023-04-25T15:40:09;8.90;99.90
13572;DHT22;6857;53.484;10.216;2023-04-25T15:42:37;8.90;99.90
13572;DHT22;6857;53.484;10.216;2023-04-25T15:45:07;9.80;99.90
13572;DHT22;6857;53.484;10.216;2023-04-25T15:47:34;10.20;99.90
13572;DHT22;6857;53.484;10.216;2023-04-25T15:50:00;10.70;99.90
13572;DHT22;6857;53.484;10.216;2023-04-25T15:52:26;11.20;99.90
13572;DHT22;6857;53.484;10.216;2023-04-25T15:54:52;11.20;99.90
13572;DHT22;6857;53.484;10.216;2023-04-25T15:57:17;11.20;99.90
13572;DHT22;6857;53.484;10.216;2023-04-25T15:59:43;10.90;99.90
13572;DHT22;6857;53.484;10.216;2023-04-25T16:02:09;10.90;99.90
13572;DHT22;6857;53.484;10.216;2023-04-25T16:04:34;10.70;99.90
13572;DHT22;6857;53.484;10.216;2023-04-25T16:07:01;10.30;99.90
13572;DHT22;6857;53.484;10.216;2023-04-25T16:09:28;10.00;99.90
13572;DHT22;6857;53.484;10.216;2023-04-25T16:11:53;10.10;99.90
13572;DHT22;6857;53.484;10.216;2023-04-25T16:14:19;10.00;99.90
13572;DHT22;6857;53.484;10.216;2023-04-25T16:16:45;9.90;99.90
13572;DHT22;6857;53.484;10.216;2023-04-25T16:19:10;9.80;99.90
13572;DHT22;6857;53.484;10.216;2023-04-25T16:21:36;9.80;99.90
13572;DHT22;6857;53.484;10.216;2023-04-25T16:24:02;9.70;99.90
13572;DHT22;6857;53.484;10.216;2023-04-25T16:26:28;9.50;99.90
13572;DHT22;6857;53.484;10.216;2023-04-25T16:28:53;9.30;99.90
13572;DHT22;6857;53.484;10.216;2023-04-25T16:31:19;9.10;99.90
13572;DHT22;6857;53.484;10.216;2023-04-25T16:33:45;9.10;99.90
13572;DHT22;6857;53.484;10.216;2023-04-25T16:36:10;9.30;99.90
13572;DHT22;6857;53.484;10.216;2023-04-25T16:38:37;9.40;99.90
13572;DHT22;6857;53.484;10.216;2023-04-25T16:41:04;9.40;99.90
13572;DHT22;6857;53.484;10.216;2023-04-25T16:43:30;9.20;99.90
13572;DHT22;6857;53.484;10.216;2023-04-25T16:45:56;9.10;99.90
13572;DHT22;6857;53.484;10.216;2023-04-25T16:48:24;8.90;99.90
13572;DHT22;6857;53.484;10.216;2023-04-25T16:50:50;8.80;99.90
13572;DHT22;6857;53.484;10.216;2023-04-25T16:53:17;8.80;99.90
13572;DHT22;6857;53.484;10.216;2023-04-25T16:55:42;8.70;99.90
13572;DHT22;6857;53.484;10.216;2023-04-25T16:58:09;8.70;99.90
13572;DHT22;6857;53.484;10.216;2023-04-25T17:00:39;8.50;99.90
13572;DHT22;6857;53.484;10.216;2023-04-25T17:03:06;8.60;99.90
13572;DHT22;6857;53.484;10.216;2023-04-25T17:05:32;8.50;99.90
13572;DHT22;6857;53.484;10.216;2023-04-25T17:07:58;8.60;99.90
13572;DHT22;6857;53.484;10.216;2023-04-25T17:10:24;8.70;99.90
13572;DHT22;6857;53.484;10.216;2023-04-25T17:12:50;8.60;99.90
13572;DHT22;6857;53.484;10.216;2023-04-25T17:15:15;8.60;99.90
13572;DHT22;6857;53.484;10.216;2023-04-25T17:17:41;8.70;99.90
13572;DHT22;6857;53.484;10.216;2023-04-25T17:20:07;8.60;99.90
13572;DHT22;6857;53.484;10.216;2023-04-25T17:22:34;8.60;99.90
13572;DHT22;6857;53.484;10.216;2023-04-25T17:25:05;8.50;99.90
13572;DHT22;6857;53.484;10.216;2023-04-25T17:27:32;8.40;99.90
13572;DHT22;6857;53.484;10.216;2023-04-25T17:29:57;8.40;99.90
13572;DHT22;6857;53.484;10.216;2023-04-25T17:32:23;8.30;99.90
13572;DHT22;6857;53.484;10.216;2023-04-25T17:34:49;8.40;99.90
13572;DHT22;6857;53.484;10.216;2023-04-25T17:37:15;8.30;99.90
13572;DHT22;6857;53.484;10.216;2023-04-25T17:39:44;8.20;99.90
13572;DHT22;6857;53.484;10.216;2023-04-25T17:42:10;8.10;99.90
13572;DHT22;6857;53.484;10.216;2023-04-25T17:44:37;8.10;99.90
13572;DHT22;6857;53.484;10.216;2023-04-25T17:47:03;8.00;99.90
13572;DHT22;6857;53.484;10.216;2023-04-25T17:49:31;7.90;99.90
13572;DHT22;6857;53.484;10.216;2023-04-25T17:51:57;7.60;99.90
13572;DHT22;6857;53.484;10.216;2023-04-25T17:54:23;7.50;99.90
13572;DHT22;6857;53.484;10.216;2023-04-25T17:56:49;7.40;99.90
13572;DHT22;6857;53.484;10.216;2023-04-25T17:59:15;7.40;99.90
13572;DHT22;6857;53.484;10.216;2023-04-25T18:01:41;7.40;99.90
13572;DHT22;6857;53.484;10.216;2023-04-25T18:04:07;7.40;99.90
13572;DHT22;6857;53.484;10.216;2023-04-25T18:06:33;7.30;99.90
13572;DHT22;6857;53.484;10.216;2023-04-25T18:11:26;6.90;99.90